MKE weather

General Mitchell International Airport
Milwaukee, Wisconsin, United States

Public forecast

Using degrees Fahrenheit for public forecast. Weather courtesy of forecast.io.

Current aviation weather report (METAR) for General Mitchell International Airport

Retrieved 2019/10/15 09:52 UTC (29 minutes ago):

KMKE 150952Z 16007KT 10SM BKN240 08/05 A2997 RMK AO2 SLP153 T00780050

Aviation forecast (TAF) for General Mitchell International Airport

Retrieved 2019/10/15 06:24 UTC (4 hours ago):

TAF KMKE 150520Z 1506/1612 21005KT P6SM FEW120 BKN250 FM151300 18010KT P6SM BKN100 WS020/21040KT FM151500 18012G22KT P6SM VCSH SCT030 OVC080 FM151900 22012G21KT P6SM VCSH SCT025 BKN040 FM152100 25012KT P6SM SCT025 BKN050 FM152300 27012G21KT P6SM BKN025 FM160900 30017G28KT P6SM BKN019